Time;durP1;ratioP1;P1;durP2;ratioP2;P2;SDS_P1;SDS_P2;PMS_P1;PMS_P2;Temp;Humidity;BMP_temperature;BMP_pressure;BME280_temperature;BME280_humidity;BME280_pressure;Samples;Min_cycle;Max_cycle;Signal;HPM_P1;HPM_P2
2021/09/09 00:01:28;;;;;;;5.70;5.40;;;;;;;16.21;76.67;100718.44;4424470;32;20103;-68
2021/09/09 00:03:54;;;;;;;5.90;5.50;;;;;;;16.22;75.95;100713.03;4413430;32;20136;-68
2021/09/09 00:06:19;;;;;;;5.90;5.60;;;;;;;16.23;76.64;100717.38;4421044;32;20072;-68
2021/09/09 00:08:44;;;;;;;8.18;7.50;;;;;;;16.22;76.59;100721.00;4405874;32;20084;-69
2021/09/09 00:11:10;;;;;;;5.50;5.20;;;;;;;16.22;75.89;100721.00;4425666;32;20091;-68
2021/09/09 00:13:35;;;;;;;7.72;7.32;;;;;;;15.85;76.91;100656.72;4406060;32;20095;-69
2021/09/09 00:16:00;;;;;;;5.78;5.47;;;;;;;16.02;76.87;100681.94;4410974;32;20075;-68
2021/09/09 00:18:26;;;;;;;5.30;5.10;;;;;;;14.89;76.85;100520.97;4405780;32;20593;-68
2021/09/09 00:20:51;;;;;;;5.60;5.30;;;;;;;16.06;76.94;100707.22;4406457;32;20072;-68
2021/09/09 00:23:17;;;;;;;6.00;5.70;;;;;;;15.97;77.16;100699.97;4409029;32;20129;-68
2021/09/09 00:25:42;;;;;;;7.50;7.00;;;;;;;15.89;77.66;100700.53;4419567;32;20126;-69
2021/09/09 00:28:07;;;;;;;5.40;5.20;;;;;;;15.79;77.63;100697.72;4412897;32;20057;-68
2021/09/09 00:30:33;;;;;;;7.07;6.57;;;;;;;15.73;77.95;100696.38;4409739;32;20080;-69
2021/09/09 00:32:58;;;;;;;5.65;5.32;;;;;;;15.66;77.95;100686.34;4405939;32;20080;-68
2021/09/09 00:35:23;;;;;;;5.57;5.28;;;;;;;15.58;78.17;100689.53;4418242;32;20558;-69
2021/09/09 00:37:49;;;;;;;6.12;5.65;;;;;;;15.55;78.49;100697.69;4408883;32;20082;-69
2021/09/09 00:40:14;;;;;;;5.50;5.20;;;;;;;15.54;78.37;100683.63;4418316;32;20065;-68
2021/09/09 00:42:40;;;;;;;7.55;7.15;;;;;;;15.57;79.04;100677.25;4431244;32;20773;-69
2021/09/09 00:45:06;;;;;;;5.45;5.15;;;;;;;15.62;79.05;100672.50;4422734;32;20084;-68
2021/09/09 00:47:31;;;;;;;6.57;6.28;;;;;;;15.62;79.39;100671.66;4402745;32;20121;-69
2021/09/09 00:49:56;;;;;;;5.82;5.53;;;;;;;15.63;79.61;100673.31;4423568;32;20064;-69
2021/09/09 00:52:22;;;;;;;6.00;5.70;;;;;;;15.59;79.72;100669.22;4405357;32;20073;-69
2021/09/09 00:54:47;;;;;;;7.20;6.70;;;;;;;15.54;79.72;100667.75;4404898;32;20083;-68
2021/09/09 00:57:14;;;;;;;5.90;5.60;;;;;;;15.51;79.92;100662.69;4433515;32;20472;-68
2021/09/09 00:59:39;;;;;;;7.50;6.85;;;;;;;15.49;79.95;100664.59;4406101;32;20065;-69
2021/09/09 01:02:05;;;;;;;6.20;5.85;;;;;;;15.49;80.50;100654.00;4407660;32;20126;-68
2021/09/09 01:04:30;;;;;;;6.37;5.97;;;;;;;15.51;80.19;100661.84;4417839;32;20099;-70
2021/09/09 01:06:56;;;;;;;5.60;5.30;;;;;;;15.56;80.07;100657.91;4397575;32;20079;-69
2021/09/09 01:09:21;;;;;;;5.80;5.40;;;;;;;15.58;80.57;100656.97;4407974;32;20291;-68
2021/09/09 01:11:46;;;;;;;5.80;5.50;;;;;;;15.60;80.35;100658.53;4404098;32;20488;-68
2021/09/09 01:14:16;;;;;;;5.90;5.50;;;;;;;15.69;80.15;100651.69;4407863;32;20688;-68
2021/09/09 01:16:41;;;;;;;7.40;7.00;;;;;;;15.77;79.14;100649.34;4405670;32;20135;-68
2021/09/09 01:19:07;;;;;;;6.57;6.07;;;;;;;15.83;78.60;100646.25;4419553;32;20073;-68
2021/09/09 01:21:33;;;;;;;6.57;6.28;;;;;;;15.83;78.67;100642.78;4435325;32;20060;-69
2021/09/09 01:23:59;;;;;;;5.70;5.40;;;;;;;15.68;78.30;100624.41;4422361;32;20411;-68
2021/09/09 01:26:27;;;;;;;5.97;5.68;;;;;;;15.60;79.49;100610.91;4410392;32;20188;-68
2021/09/09 01:28:52;;;;;;;5.72;5.40;;;;;;;15.74;78.75;100639.03;4422591;32;20649;-68
2021/09/09 01:31:17;;;;;;;5.75;5.45;;;;;;;15.72;78.63;100639.12;4414388;32;20068;-68
2021/09/09 01:33:43;;;;;;;5.60;5.30;;;;;;;15.71;78.53;100641.84;4425192;32;20461;-68
2021/09/09 01:36:08;;;;;;;5.12;4.85;;;;;;;15.69;78.35;100641.94;4423536;32;20265;-68
2021/09/09 01:38:34;;;;;;;5.70;5.40;;;;;;;15.66;78.81;100642.19;4424877;32;20086;-68
2021/09/09 01:40:59;;;;;;;5.87;5.57;;;;;;;15.61;79.61;100625.81;4412699;32;20516;-68
2021/09/09 01:43:24;;;;;;;5.95;5.57;;;;;;;15.67;79.38;100637.75;4362618;32;20243;-69
2021/09/09 01:45:50;;;;;;;5.55;5.25;;;;;;;15.65;79.03;100645.78;4327183;32;20081;-69
2021/09/09 01:48:15;;;;;;;5.50;5.20;;;;;;;15.66;78.58;100636.91;4341373;32;20093;-68
2021/09/09 01:50:40;;;;;;;8.02;6.53;;;;;;;15.67;78.41;100629.81;4328475;32;20318;-70
2021/09/09 01:53:06;;;;;;;6.43;5.85;;;;;;;15.54;78.90;100609.56;4371244;32;20073;-68
2021/09/09 01:55:31;;;;;;;5.82;5.47;;;;;;;15.63;79.02;100631.84;4336249;32;20562;-69
2021/09/09 01:57:56;;;;;;;5.28;5.07;;;;;;;15.59;79.14;100627.72;4331238;32;20090;-68
2021/09/09 02:00:22;;;;;;;5.80;5.50;;;;;;;15.55;78.88;100620.97;4345994;32;20070;-68
2021/09/09 02:02:47;;;;;;;5.20;5.00;;;;;;;15.53;79.10;100615.78;4328758;32;20351;-68
2021/09/09 02:05:12;;;;;;;5.60;5.30;;;;;;;15.53;79.57;100614.97;4337083;32;20077;-68
2021/09/09 02:07:38;;;;;;;6.75;6.45;;;;;;;15.50;78.85;100618.69;4355455;32;20070;-68
2021/09/09 02:10:04;;;;;;;4.97;4.78;;;;;;;15.51;78.83;100617.72;4333158;32;20327;-68
2021/09/09 02:12:30;;;;;;;5.22;5.03;;;;;;;15.47;79.03;100610.13;4357850;32;20090;-69
2021/09/09 02:14:55;;;;;;;5.20;4.90;;;;;;;15.50;78.59;100612.56;4331184;32;20131;-69
2021/09/09 02:17:20;;;;;;;5.43;5.12;;;;;;;15.49;78.89;100614.34;4357785;32;20548;-68
2021/09/09 02:19:46;;;;;;;6.18;5.85;;;;;;;15.47;78.73;100608.31;4341131;32;20086;-69
2021/09/09 02:22:11;;;;;;;5.18;4.93;;;;;;;15.47;78.69;100615.41;4321333;32;20835;-68
2021/09/09 02:24:37;;;;;;;6.85;6.45;;;;;;;15.47;79.12;100616.25;4333035;32;20163;-69
2021/09/09 02:27:02;;;;;;;5.10;4.80;;;;;;;15.49;78.96;100611.69;4331811;32;20074;-68
2021/09/09 02:29:27;;;;;;;5.30;5.05;;;;;;;15.52;78.96;100613.28;4341830;32;20322;-70
2021/09/09 02:31:53;;;;;;;5.37;5.10;;;;;;;15.51;78.36;100615.06;4337819;32;20073;-68
2021/09/09 02:34:18;;;;;;;5.82;5.35;;;;;;;15.51;78.09;100617.72;4359368;32;20105;-68
2021/09/09 02:36:44;;;;;;;7.03;6.65;;;;;;;15.51;77.95;100616.87;4358188;32;20073;-68
2021/09/09 02:39:09;;;;;;;5.20;5.00;;;;;;;15.51;78.58;100608.94;4336728;32;20070;-68
2021/09/09 02:41:34;;;;;;;6.25;5.95;;;;;;;15.50;78.76;100610.75;4337032;32;20597;-68
2021/09/09 02:44:00;;;;;;;5.62;5.20;;;;;;;15.50;77.92;100608.09;4331109;32;20112;-68
2021/09/09 02:46:25;;;;;;;5.78;5.47;;;;;;;14.15;78.57;100380.19;4343587;32;20058;-68
2021/09/09 02:48:51;;;;;;;5.55;5.30;;;;;;;15.49;78.35;100602.94;4328011;32;20361;-68
2021/09/09 02:51:17;;;;;;;5.47;5.07;;;;;;;15.46;78.12;100600.53;4346352;32;20081;-68
2021/09/09 02:53:42;;;;;;;6.35;6.05;;;;;;;15.42;78.57;100607.84;4327360;32;20073;-69
2021/09/09 02:56:08;;;;;;;5.30;5.00;;;;;;;15.45;78.67;100601.47;4340884;32;20063;-68
2021/09/09 02:58:33;;;;;;;6.50;6.10;;;;;;;15.33;78.45;100582.06;4317182;32;20083;-69
2021/09/09 03:00:58;;;;;;;6.05;5.75;;;;;;;15.50;77.95;100594.03;4330492;32;20259;-68
2021/09/09 03:03:24;;;;;;;5.50;5.22;;;;;;;15.49;77.74;100597.63;4345261;32;20067;-68
2021/09/09 03:05:49;;;;;;;5.80;5.40;;;;;;;15.03;77.72;100527.00;4318781;32;20089;-68
2021/09/09 03:08:14;;;;;;;5.32;5.03;;;;;;;15.42;78.56;100589.31;4332155;32;20086;-68
2021/09/09 03:10:40;;;;;;;7.70;7.20;;;;;;;15.41;78.05;100592.06;4338418;32;20212;-68
2021/09/09 03:13:05;;;;;;;5.60;5.30;;;;;;;15.40;78.23;100585.13;4320768;32;20669;-68
2021/09/09 03:15:30;;;;;;;5.68;5.43;;;;;;;15.36;78.59;100592.44;4332863;32;20112;-68
2021/09/09 03:17:56;;;;;;;5.25;5.00;;;;;;;15.30;78.54;100592.87;4407224;32;20061;-69
2021/09/09 03:20:21;;;;;;;5.82;5.53;;;;;;;15.26;78.53;100586.13;4420352;32;20075;-69
2021/09/09 03:22:46;;;;;;;6.28;5.97;;;;;;;15.22;78.48;100584.69;4401656;32;20123;-68
2021/09/09 03:25:12;;;;;;;4.90;4.70;;;;;;;15.24;79.00;100585.41;4416367;32;20673;-68
2021/09/09 03:27:37;;;;;;;6.40;6.10;;;;;;;15.20;78.10;100586.59;4419262;32;20075;-69
2021/09/09 03:30:03;;;;;;;5.22;5.00;;;;;;;15.16;78.31;100586.78;4412531;32;20107;-69
2021/09/09 03:32:28;;;;;;;5.68;5.37;;;;;;;15.11;78.67;100580.16;4422131;32;20060;-69
2021/09/09 03:34:54;;;;;;;5.78;5.18;;;;;;;15.08;79.14;100585.69;4405869;32;20373;-68
2021/09/09 03:37:19;;;;;;;5.55;5.25;;;;;;;15.04;78.75;100581.56;4416030;32;20658;-68
2021/09/09 03:39:45;;;;;;;6.75;6.35;;;;;;;15.02;79.31;100575.56;4407534;32;20084;-68
2021/09/09 03:42:10;;;;;;;5.22;4.93;;;;;;;14.74;79.98;100536.13;4412962;32;20087;-68
2021/09/09 03:44:35;;;;;;;6.50;6.10;;;;;;;14.94;80.02;100584.03;4416504;32;20064;-69
2021/09/09 03:47:01;;;;;;;5.32;5.03;;;;;;;14.98;79.74;100592.59;4407594;32;20118;-68
2021/09/09 03:49:26;;;;;;;5.15;4.95;;;;;;;14.89;79.70;100587.03;4424770;32;20210;-69
2021/09/09 03:51:52;;;;;;;5.25;5.00;;;;;;;14.92;80.00;100597.34;4414905;32;22099;-69
2021/09/09 03:54:17;;;;;;;5.37;5.05;;;;;;;14.93;80.19;100604.34;4425201;32;20088;-68
2021/09/09 03:56:42;;;;;;;6.30;6.00;;;;;;;14.91;79.57;100597.44;4357609;32;20235;-69
2021/09/09 03:59:08;;;;;;;5.37;5.07;;;;;;;14.89;79.83;100599.37;4352444;32;20429;-68
2021/09/09 04:01:33;;;;;;;6.47;6.07;;;;;;;14.86;80.12;100595.16;4321315;32;20204;-69
2021/09/09 04:03:58;;;;;;;5.50;5.20;;;;;;;14.14;79.82;100476.16;4343573;32;20098;-68
2021/09/09 04:06:24;;;;;;;5.40;5.10;;;;;;;14.84;80.56;100594.41;4330369;32;20075;-68
2021/09/09 04:08:49;;;;;;;5.25;5.05;;;;;;;14.48;80.65;100537.94;4331311;32;20093;-68
2021/09/09 04:11:14;;;;;;;5.22;4.82;;;;;;;14.75;80.88;100593.28;4342264;32;20139;-69
2021/09/09 04:13:40;;;;;;;6.72;6.35;;;;;;;14.72;80.99;100592.66;4329038;32;20500;-69
2021/09/09 04:16:05;;;;;;;5.05;4.80;;;;;;;14.68;80.75;100588.53;4329260;32;20354;-68
2021/09/09 04:18:30;;;;;;;5.80;5.53;;;;;;;14.39;81.13;100548.31;4328210;32;20070;-69
2021/09/09 04:20:56;;;;;;;5.18;4.97;;;;;;;14.45;81.36;100566.37;4319074;32;20089;-68
2021/09/09 04:23:21;;;;;;;5.10;4.90;;;;;;;14.59;81.30;100592.66;4355442;32;20845;-68
2021/09/09 04:25:47;;;;;;;5.60;5.30;;;;;;;14.57;81.73;100586.66;4399860;32;20086;-68
2021/09/09 04:28:13;;;;;;;6.35;6.05;;;;;;;14.56;81.97;100583.19;4335285;32;20625;-69
2021/09/09 04:30:38;;;;;;;6.28;5.97;;;;;;;14.58;81.87;100585.72;4329801;32;20069;-67
2021/09/09 04:33:03;;;;;;;5.72;5.43;;;;;;;14.64;81.99;100580.00;4335643;32;20081;-68
2021/09/09 04:35:29;;;;;;;5.22;5.00;;;;;;;14.65;81.66;100581.66;4343530;32;20066;-69
2021/09/09 04:37:54;;;;;;;5.32;5.03;;;;;;;14.64;81.82;100580.00;4399497;32;20078;-68
2021/09/09 04:40:19;;;;;;;5.30;5.00;;;;;;;14.62;81.92;100583.72;4334887;32;20133;-68
2021/09/09 04:42:45;;;;;;;6.37;6.07;;;;;;;14.61;81.64;100588.12;4336014;32;20874;-69
2021/09/09 04:45:11;;;;;;;6.78;6.25;;;;;;;14.65;82.10;100570.25;4353859;32;20136;-68
2021/09/09 04:47:36;;;;;;;6.57;6.25;;;;;;;14.67;81.62;100574.50;4325424;32;20388;-68
2021/09/09 04:50:02;;;;;;;5.50;5.20;;;;;;;13.49;82.08;100387.47;4331689;32;20076;-69
2021/09/09 04:52:28;;;;;;;5.05;4.75;;;;;;;14.54;81.80;100552.53;4315722;32;20066;-69
2021/09/09 04:54:53;;;;;;;7.22;6.53;;;;;;;14.73;81.80;100576.72;4320056;32;20081;-69
2021/09/09 04:57:19;;;;;;;5.25;4.97;;;;;;;14.80;81.42;100576.25;4330518;32;20101;-68
2021/09/09 04:59:44;;;;;;;6.28;5.97;;;;;;;14.80;81.52;100571.81;4353191;32;20072;-68
2021/09/09 05:02:09;;;;;;;5.15;4.95;;;;;;;14.81;81.42;100584.06;4343007;32;20693;-69
2021/09/09 05:04:37;;;;;;;7.03;6.62;;;;;;;14.83;81.63;100582.16;4339107;32;20074;-69
2021/09/09 05:07:03;;;;;;;5.50;5.20;;;;;;;13.63;80.45;100391.78;4398386;32;20128;-69
2021/09/09 05:09:28;;;;;;;5.30;5.03;;;;;;;14.87;81.24;100590.72;4420965;32;20286;-70
2021/09/09 05:11:54;;;;;;;5.10;4.90;;;;;;;14.73;80.78;100560.84;4351198;32;20113;-67
2021/09/09 05:14:19;;;;;;;5.07;4.78;;;;;;;14.92;80.94;100591.22;4331514;32;20078;-67
2021/09/09 05:16:44;;;;;;;6.25;5.95;;;;;;;14.90;80.66;100572.84;4326272;32;20083;-68
2021/09/09 05:19:10;;;;;;;5.30;5.10;;;;;;;14.97;80.45;100581.16;4331485;32;20529;-68
2021/09/09 05:21:35;;;;;;;7.10;6.70;;;;;;;15.00;80.37;100580.94;4330647;32;20070;-68
2021/09/09 05:24:00;;;;;;;5.40;5.10;;;;;;;15.05;80.30;100575.31;4343312;32;20615;-68
2021/09/09 05:26:26;;;;;;;5.40;5.20;;;;;;;15.09;79.96;100576.78;4345271;32;20109;-68
2021/09/09 05:28:51;;;;;;;4.80;4.60;;;;;;;15.16;79.26;100576.22;4325191;32;20370;-68
2021/09/09 05:31:16;;;;;;;6.12;5.72;;;;;;;15.22;79.19;100574.94;4330392;32;20101;-68
2021/09/09 05:33:42;;;;;;;6.85;6.45;;;;;;;15.20;79.31;100568.91;4345633;32;20139;-68
2021/09/09 05:36:07;;;;;;;5.20;5.00;;;;;;;15.25;79.34;100573.84;4330529;32;20069;-68
2021/09/09 05:38:33;;;;;;;5.85;5.55;;;;;;;15.31;79.23;100583.97;4350902;32;20077;-68
2021/09/09 05:40:58;;;;;;;5.53;5.22;;;;;;;15.38;78.82;100579.94;4326064;32;20079;-68
2021/09/09 05:43:23;;;;;;;5.40;5.10;;;;;;;15.48;78.09;100585.38;4364538;32;20084;-68
2021/09/09 05:45:49;;;;;;;5.00;4.80;;;;;;;15.53;78.73;100578.78;4313714;32;20074;-68
2021/09/09 05:48:14;;;;;;;5.00;4.80;;;;;;;15.60;78.59;100579.16;4329132;32;20139;-68
2021/09/09 05:50:39;;;;;;;7.53;7.12;;;;;;;15.68;77.88;100586.53;4316359;32;20584;-68
2021/09/09 05:53:05;;;;;;;5.00;4.80;;;;;;;15.79;77.46;100607.75;4352962;32;20062;-68
2021/09/09 05:55:30;;;;;;;6.70;6.25;;;;;;;15.87;76.71;100586.84;4323082;32;20078;-68
2021/09/09 05:57:55;;;;;;;5.57;5.28;;;;;;;15.92;77.06;100583.84;4338541;32;20599;-68
2021/09/09 06:00:22;;;;;;;5.70;5.32;;;;;;;15.84;76.40;100557.97;4336134;32;20066;-68
2021/09/09 06:02:48;;;;;;;6.57;6.18;;;;;;;16.04;75.72;100579.44;4345810;32;20584;-68
2021/09/09 06:05:14;;;;;;;5.57;5.28;;;;;;;16.11;75.11;100580.63;4410480;32;20188;-70
2021/09/09 06:07:39;;;;;;;6.20;5.85;;;;;;;16.21;74.84;100575.47;4328233;32;20093;-70
2021/09/09 06:10:05;;;;;;;5.57;5.28;;;;;;;16.25;74.26;100571.63;4328935;32;20079;-70
2021/09/09 06:12:30;;;;;;;5.97;5.57;;;;;;;16.25;75.07;100563.66;4341086;32;20474;-71
2021/09/09 06:14:56;;;;;;;6.12;5.68;;;;;;;16.44;74.51;100589.56;4332748;32;20086;-70
2021/09/09 06:17:22;;;;;;;5.50;5.20;;;;;;;16.06;74.37;100500.75;4416378;32;20290;-70
2021/09/09 06:19:47;;;;;;;5.97;5.68;;;;;;;16.45;74.46;100556.81;4419526;32;20556;-70
2021/09/09 06:22:13;;;;;;;5.28;5.07;;;;;;;16.58;74.58;100559.31;4424372;32;20080;-70
2021/09/09 06:24:38;;;;;;;6.55;6.25;;;;;;;16.65;73.65;100561.34;4406184;32;20111;-70
2021/09/09 06:27:03;;;;;;;6.12;5.78;;;;;;;16.79;74.44;100567.38;4348687;32;20080;-70
2021/09/09 06:29:29;;;;;;;5.35;5.12;;;;;;;16.92;73.50;100565.44;4334554;32;20315;-72
2021/09/09 06:31:54;;;;;;;4.80;4.60;;;;;;;17.05;72.73;100565.28;4344228;32;20127;-70
2021/09/09 06:34:19;;;;;;;5.82;5.43;;;;;;;17.02;72.11;100552.25;4335329;32;20762;-71
2021/09/09 06:36:45;;;;;;;5.55;5.25;;;;;;;17.29;71.95;100576.53;4337293;32;20065;-70
2021/09/09 06:39:11;;;;;;;5.43;5.12;;;;;;;17.50;72.26;100595.16;4321803;32;20167;-70
2021/09/09 06:41:36;;;;;;;7.00;6.65;;;;;;;17.66;71.92;100594.72;4316748;32;20090;-70
2021/09/09 06:44:02;;;;;;;5.90;5.60;;;;;;;17.81;71.31;100594.38;4340193;32;20088;-70
2021/09/09 06:46:27;;;;;;;5.47;5.12;;;;;;;17.91;69.63;100596.16;4351392;32;20074;-71
2021/09/09 06:48:52;;;;;;;5.60;5.30;;;;;;;18.00;69.41;100594.53;4330183;32;20074;-70
2021/09/09 06:51:21;;;;;;;6.22;5.82;;;;;;;18.04;68.33;100595.97;4373326;32;20057;-69
2021/09/09 06:53:46;;;;;;;6.80;6.35;;;;;;;18.14;69.41;100588.03;4389565;32;20072;-70
2021/09/09 06:56:12;;;;;;;6.00;5.50;;;;;;;18.23;68.44;100589.06;4415011;32;20057;-70
2021/09/09 06:58:37;;;;;;;7.22;6.80;;;;;;;18.38;68.84;100581.56;4389605;32;20065;-70
2021/09/09 07:01:02;;;;;;;5.68;5.20;;;;;;;18.46;67.58;100571.97;4384226;32;20132;-70
2021/09/09 07:03:30;;;;;;;6.37;5.87;;;;;;;18.57;68.34;100562.22;4345468;32;20500;-71
2021/09/09 07:05:56;;;;;;;5.53;5.28;;;;;;;18.69;68.36;100551.34;4401525;32;20508;-70
2021/09/09 07:08:21;;;;;;;5.53;5.25;;;;;;;18.84;66.71;100573.09;4335964;32;20376;-70
2021/09/09 07:10:46;;;;;;;6.70;6.40;;;;;;;19.00;66.60;100563.72;4342557;32;20290;-70
2021/09/09 07:13:12;;;;;;;6.25;5.85;;;;;;;19.09;64.78;100550.44;4333213;32;20600;-70
2021/09/09 07:15:38;;;;;;;7.30;6.85;;;;;;;19.30;64.78;100562.78;4337505;32;20074;-70
2021/09/09 07:18:04;;;;;;;5.90;5.60;;;;;;;19.32;64.48;100571.44;4332971;32;20577;-70
2021/09/09 07:20:29;;;;;;;6.55;6.15;;;;;;;19.46;64.58;100560.38;4344040;32;20164;-71
2021/09/09 07:22:54;;;;;;;5.75;5.45;;;;;;;19.49;64.01;100551.28;4333118;32;20098;-70
2021/09/09 07:25:20;;;;;;;6.32;5.93;;;;;;;19.71;64.32;100566.16;4343681;32;20098;-71
2021/09/09 07:27:45;;;;;;;7.05;6.65;;;;;;;19.84;62.49;100563.19;4356582;32;20073;-71
2021/09/09 07:30:10;;;;;;;6.40;5.90;;;;;;;19.88;62.67;100556.56;4331326;32;20461;-70
2021/09/09 07:32:36;;;;;;;7.43;6.93;;;;;;;19.69;62.64;100530.81;4329708;32;20098;-70
2021/09/09 07:35:02;;;;;;;6.05;5.75;;;;;;;19.95;62.29;100563.03;4333482;32;20097;-70
2021/09/09 07:37:28;;;;;;;6.28;5.87;;;;;;;19.92;61.44;100558.81;4330741;32;20104;-71
2021/09/09 07:39:53;;;;;;;6.35;5.95;;;;;;;20.17;60.60;100567.16;4334726;32;20543;-70
2021/09/09 07:42:18;;;;;;;6.68;6.28;;;;;;;20.26;61.66;100571.59;4352622;32;20445;-70
2021/09/09 07:44:44;;;;;;;7.53;7.12;;;;;;;20.51;61.51;100569.25;4417483;32;20115;-70
2021/09/09 07:47:09;;;;;;;6.00;5.37;;;;;;;20.50;61.56;100544.41;4410754;32;20057;-68
2021/09/09 07:49:34;;;;;;;6.85;6.40;;;;;;;20.88;60.43;100581.72;4419686;32;20138;-69
2021/09/09 07:52:00;;;;;;;6.07;5.72;;;;;;;20.98;59.42;100577.16;4360726;32;20083;-68
2021/09/09 07:54:25;;;;;;;6.20;5.80;;;;;;;21.03;58.84;100585.56;4340857;32;20420;-69
2021/09/09 07:56:51;;;;;;;6.32;5.95;;;;;;;21.09;59.63;100590.28;4388294;32;21466;-69
2021/09/09 07:59:16;;;;;;;6.18;5.87;;;;;;;20.98;59.44;100546.97;4411918;32;20151;-69
2021/09/09 08:01:44;;;;;;;7.15;6.75;;;;;;;21.15;59.20;100558.63;4370659;32;20277;-71
2021/09/09 08:04:16;;;;;;;6.00;5.62;;;;;;;21.40;58.21;100581.06;4341382;32;20082;-71
2021/09/09 08:06:43;;;;;;;8.20;7.65;;;;;;;21.46;57.64;100586.66;4342728;32;20496;-68
2021/09/09 08:09:08;;;;;;;6.12;5.72;;;;;;;21.46;57.83;100581.31;4353813;32;20092;-69
2021/09/09 08:11:34;;;;;;;7.85;7.03;;;;;;;21.65;58.10;100595.47;4348576;32;20070;-68
2021/09/09 08:13:59;;;;;;;7.00;6.60;;;;;;;21.40;57.65;100535.69;4349619;32;20219;-69
2021/09/09 08:16:25;;;;;;;6.40;6.00;;;;;;;21.84;56.77;100589.97;4330698;32;20074;-69
2021/09/09 08:18:50;;;;;;;6.60;6.20;;;;;;;22.05;56.73;100599.44;4336662;32;20541;-69
2021/09/09 08:21:15;;;;;;;6.18;5.87;;;;;;;22.15;56.33;100600.19;4330652;32;20338;-69
2021/09/09 08:23:41;;;;;;;7.97;7.47;;;;;;;22.11;56.16;100599.66;4344001;32;20732;-69
2021/09/09 08:26:06;;;;;;;6.28;5.95;;;;;;;22.23;55.34;100608.25;4407372;32;20062;-69
2021/09/09 08:28:31;;;;;;;7.15;6.78;;;;;;;22.40;55.97;100603.03;4342647;32;20074;-69
2021/09/09 08:30:57;;;;;;;6.65;6.25;;;;;;;21.56;55.01;100444.22;4340736;32;20595;-69
2021/09/09 08:33:22;;;;;;;6.45;6.03;;;;;;;22.42;55.06;100580.47;4342720;32;20074;-69
2021/09/09 08:35:48;;;;;;;7.03;6.62;;;;;;;22.66;55.08;100603.81;4330189;32;20646;-68
2021/09/09 08:38:13;;;;;;;6.70;6.30;;;;;;;22.67;54.90;100592.13;4340714;32;20074;-69
2021/09/09 08:40:39;;;;;;;7.75;7.35;;;;;;;22.99;54.26;100603.94;4338753;32;20280;-69
2021/09/09 08:43:05;;;;;;;6.45;6.00;;;;;;;22.98;54.26;100602.25;4331626;32;20141;-69
2021/09/09 08:45:30;;;;;;;6.75;6.15;;;;;;;22.06;53.96;100433.59;4337058;32;20074;-70
2021/09/09 08:47:55;;;;;;;6.32;5.95;;;;;;;23.33;53.80;100608.34;4339577;32;20081;-69
2021/09/09 08:50:21;;;;;;;6.57;6.22;;;;;;;23.30;53.51;100606.03;4329788;32;20101;-69
2021/09/09 08:52:46;;;;;;;7.45;7.05;;;;;;;23.46;54.08;100603.34;4373100;32;20070;-68
2021/09/09 08:55:11;;;;;;;7.28;6.85;;;;;;;23.38;52.73;100597.16;4331615;32;20438;-69
2021/09/09 08:57:37;;;;;;;7.30;6.97;;;;;;;23.32;52.89;100597.84;4350090;32;20472;-69
2021/09/09 09:00:04;;;;;;;5.87;5.57;;;;;;;23.27;54.28;100598.31;4340274;32;20084;-69
2021/09/09 09:02:29;;;;;;;6.85;6.35;;;;;;;23.35;54.43;100598.31;4337655;32;20281;-69
2021/09/09 09:05:06;;;;;;;6.47;6.10;;;;;;;23.44;53.66;100591.97;4340287;32;20085;-69
2021/09/09 09:07:32;;;;;;;6.78;6.45;;;;;;;23.58;53.44;100606.53;4347219;32;20069;-69
2021/09/09 09:10:03;;;;;;;6.93;6.25;;;;;;;23.70;52.99;100582.94;4412202;32;20088;-69
2021/09/09 09:12:41;;;;;;;6.82;6.43;;;;;;;23.94;52.84;100582.09;4345102;32;20089;-69
2021/09/09 09:15:18;;;;;;;6.40;6.00;;;;;;;24.18;52.10;100586.56;4348391;32;20074;-69
2021/09/09 09:17:56;;;;;;;7.82;7.32;;;;;;;24.36;51.73;100580.16;4353170;32;20090;-69
2021/09/09 09:20:21;;;;;;;6.80;6.40;;;;;;;24.51;51.68;100591.84;4358771;32;20081;-69
2021/09/09 09:22:47;;;;;;;7.22;6.82;;;;;;;24.64;52.05;100578.72;4341325;32;20081;-69
2021/09/09 09:25:13;;;;;;;6.32;5.93;;;;;;;24.59;49.80;100556.09;4343914;32;20090;-69
2021/09/09 09:27:46;;;;;;;7.30;6.90;;;;;;;24.87;50.45;100584.12;4330561;32;20520;-69
2021/09/09 09:30:12;;;;;;;6.60;6.20;;;;;;;24.97;48.90;100583.06;4335199;32;20074;-69
2021/09/09 09:32:48;;;;;;;7.57;7.18;;;;;;;24.88;48.68;100588.50;4345083;32;20532;-69
2021/09/09 09:35:23;;;;;;;5.90;5.60;;;;;;;24.90;49.06;100582.94;4335755;32;20084;-70
2021/09/09 09:37:56;;;;;;;7.70;7.20;;;;;;;24.96;49.50;100587.62;4344597;32;21009;-69
2021/09/09 09:40:27;;;;;;;6.95;6.45;;;;;;;25.24;50.10;100587.13;4367304;32;20089;-69
2021/09/09 09:42:52;;;;;;;6.68;6.28;;;;;;;25.40;49.19;100584.31;4421357;32;20880;-69
2021/09/09 09:45:18;;;;;;;6.40;5.82;;;;;;;25.56;49.90;100583.34;4408077;32;20078;-69
2021/09/09 09:47:43;;;;;;;8.20;7.72;;;;;;;25.72;49.73;100593.13;4405366;32;20567;-69
2021/09/09 09:50:16;;;;;;;6.82;6.37;;;;;;;25.87;49.12;100585.91;4412913;32;20141;-69
2021/09/09 09:52:41;;;;;;;8.15;7.62;;;;;;;25.94;49.37;100585.19;4415093;32;20587;-70
2021/09/09 09:55:08;;;;;;;7.75;7.30;;;;;;;26.11;49.33;100578.66;4408887;32;20075;-69
2021/09/09 09:57:37;;;;;;;7.93;7.45;;;;;;;26.18;48.71;100576.91;4418303;32;20721;-69
2021/09/09 10:00:03;;;;;;;7.75;7.05;;;;;;;26.18;49.33;100576.91;4420005;32;20072;-69
2021/09/09 10:02:28;;;;;;;6.70;6.30;;;;;;;26.31;48.28;100578.94;4420933;32;20807;-71
2021/09/09 10:04:53;;;;;;;6.75;6.28;;;;;;;26.24;49.01;100577.97;4406265;32;20095;-69
2021/09/09 10:07:19;;;;;;;7.70;7.20;;;;;;;26.30;47.77;100579.09;4435947;32;20601;-69
2021/09/09 10:09:46;;;;;;;7.72;7.25;;;;;;;25.36;49.28;100453.22;4415192;32;20149;-69
2021/09/09 10:12:12;;;;;;;7.20;6.70;;;;;;;26.17;48.64;100575.22;4432608;32;20161;-69
2021/09/09 10:14:48;;;;;;;8.40;7.80;;;;;;;26.17;49.15;100569.84;4421838;32;20092;-69
2021/09/09 10:17:16;;;;;;;7.12;6.62;;;;;;;26.47;48.34;100584.09;4408853;32;20076;-69
2021/09/09 10:19:41;;;;;;;8.23;7.70;;;;;;;26.72;48.19;100580.28;4391856;32;20095;-69
2021/09/09 10:22:14;;;;;;;7.12;6.62;;;;;;;26.86;48.13;100580.28;4402524;32;20065;-69
2021/09/09 10:24:41;;;;;;;8.77;8.13;;;;;;;26.73;48.48;100549.66;4406567;32;20096;-71
2021/09/09 10:27:27;;;;;;;6.68;6.28;;;;;;;27.17;47.78;100572.94;4414637;32;20119;-69
2021/09/09 10:30:04;;;;;;;7.25;6.72;;;;;;;27.37;47.54;100575.84;4419164;32;20092;-69
2021/09/09 10:32:29;;;;;;;6.95;6.55;;;;;;;27.53;47.34;100567.47;4425171;32;20122;-70
2021/09/09 10:35:17;;;;;;;7.30;6.80;;;;;;;27.28;48.01;100569.72;4434900;32;20072;-69
2021/09/09 10:37:49;;;;;;;8.18;7.60;;;;;;;27.38;46.90;100567.56;4434005;32;20156;-70
2021/09/09 10:40:34;;;;;;;6.95;6.55;;;;;;;26.78;47.39;100434.16;4431277;32;20082;-71
2021/09/09 10:43:04;;;;;;;6.80;6.30;;;;;;;27.66;47.94;100569.44;4423584;32;20601;-69
2021/09/09 10:45:38;;;;;;;6.97;6.57;;;;;;;27.79;47.95;100569.53;4406889;32;20073;-71
2021/09/09 10:48:08;;;;;;;6.45;6.05;;;;;;;27.62;48.12;100527.72;4437722;32;20069;-70
2021/09/09 10:50:34;;;;;;;7.95;7.53;;;;;;;28.08;47.23;100569.56;4415320;32;20936;-69
2021/09/09 10:53:06;;;;;;;6.78;6.37;;;;;;;27.77;47.78;100535.72;4409731;32;20555;-70
2021/09/09 10:55:33;;;;;;;7.80;7.32;;;;;;;28.13;48.11;100567.13;4410384;32;20426;-70
2021/09/09 10:58:26;;;;;;;7.03;6.30;;;;;;;28.09;47.53;100558.56;4404779;32;20087;-69
2021/09/09 11:00:51;;;;;;;7.18;6.68;;;;;;;28.20;47.89;100560.69;4415068;32;20060;-70
2021/09/09 11:03:46;;;;;;;6.97;6.37;;;;;;;28.38;47.46;100570.13;4448656;32;20056;-69
2021/09/09 11:06:19;;;;;;;7.53;6.97;;;;;;;28.34;46.07;100571.56;4419120;32;20073;-70
2021/09/09 11:08:50;;;;;;;6.93;6.43;;;;;;;27.90;46.51;100548.50;4411128;32;20103;-70
2021/09/09 11:11:27;;;;;;;7.22;6.62;;;;;;;27.76;47.13;100525.94;4421226;32;20068;-69
2021/09/09 11:14:01;;;;;;;7.53;6.82;;;;;;;28.29;46.76;100563.25;4407678;32;21138;-69
2021/09/09 11:16:31;;;;;;;7.07;6.57;;;;;;;26.68;46.62;100369.84;4410711;32;20466;-69
2021/09/09 11:18:56;;;;;;;7.37;6.68;;;;;;;28.17;47.68;100561.09;4406541;32;20155;-70
2021/09/09 11:21:23;;;;;;;6.25;5.80;;;;;;;28.37;47.85;100560.38;4409831;32;20649;-70